AirNav   ATP
 
 647 users online  

KVLA Vandalia Municipal Airport
Vandalia, Illinois, USA

GOING TO VANDALIA?


FAA INFORMATION EFFECTIVE 04 JANUARY 2018

Location

FAA Identifier: VLA
Lat/Long: 38-59-28.7000N / 089-09-58.4000W
38-59.478333N / 089-09.973333W
38.9913056 / -89.1662222
(estimated)
Elevation: 537.2 ft. / 163.7 m (surveyed)
Variation: 01W (2005)
From city: 3 miles NW of VANDALIA, IL
Time zone: UTC -6 (UTC -5 during Daylight Saving Time)
Zip code: 62471

Airport Operations

Airport use: Open to the public
Activation date: 07/1944
Control tower: no
ARTCC: KANSAS CITY CENTER
FSS: SAINT LOUIS FLIGHT SERVICE STATION
NOTAMs facility: STL (NOTAM-D service available)
Attendance: ALL/IRREGULAR/
Wind indicator: lighted
Segmented circle: yes
Lights: MIRL RY 18/36 PRESET ON LOW INTST; TO INCR INTST & ACTVT MIRL RY 09/27, PAPI RY 18, AND REILS RY 18, 27 & 36 - CTAF.
Beacon: white-green (lighted land airport)
Operates sunset to sunrise.

Airport Communications

CTAF/UNICOM: 122.8
WX AWOS-A: 122.8 (618-283-9595)
WX AWOS-A at GRE (14 nm SW): 123.05 (618-664-1939)
  • APCH/DEP SVC PRVDD BY KANSAS CITY ARTCC ON FREQS 124.3/269.15 (DECATUR RCAG)

Nearby radio navigation aids

VOR radial/distance  VOR name  Freq  Var
VLAr178/6.2VANDALIA VORTAC114.3004E
BIBr275/32.2BIBLE GROVE VORTAC109.0003E
ENLr355/34.3CENTRALIA VORTAC115.0004E
TOYr063/38.3TROY VORTAC116.0004E

 
NDB name  Hdg/Dist  Freq  Var  ID
SALEM337/22.840001WSLO ... .-.. ---
SHELBYVILLE213/29.136502WSYZ ... -.-- --..

Airport Services

Fuel available: 100LL JET-A
FUEL IS SELF-SERVE WITH CREDIT CARD.
Parking: hangars and tiedowns
Bottled oxygen: NONE
Bulk oxygen: NONE

Runway Information

Runway 18/36

Dimensions: 4001 x 100 ft. / 1220 x 30 m
Surface: asphalt/porous friction courses, in good condition
Weight bearing capacity: 
Single wheel: 21.0
Runway edge lights: medium intensity
RUNWAY 18  RUNWAY 36
Latitude: 38-59.855173N38-59.196073N
Longitude: 089-10.037287W089-10.032420W
Elevation: 530.1 ft.532.3 ft.
Gradient: 0.1%0.1%
Traffic pattern: leftleft
Runway heading: 181 magnetic, 180 true001 magnetic, 360 true
Displaced threshold: no250 ft.
Markings: nonprecision, in good conditionnonprecision, in good condition
Visual slope indicator: 4-light PAPI on left (3.00 degrees glide path)
Runway end identifier lights: yesyes
Touchdown point: yes, no lightsyes, no lights
Obstructions: 18 ft. road, 575 ft. from runway, 284 ft. left of centerline, 20:1 slope to clear14 ft. road, 522 ft. from runway, 278 ft. right of centerline, 23:1 slope to clear
RY 36 APCH SLOPE IS 23:1 TO RELOCATED THLD, USING PART 77 SURFACES.

Runway 9/27

Dimensions: 3001 x 75 ft. / 915 x 23 m
Surface: asphalt, in fair condition
Weight bearing capacity: 
Single wheel: 19.0
Runway edge lights: medium intensity
RUNWAY 9  RUNWAY 27
Latitude: 38-59.413748N38-59.416520N
Longitude: 089-10.208473W089-09.575018W
Elevation: 531.6 ft.537.1 ft.
Gradient: 0.2%0.2%
Traffic pattern: leftleft
Runway heading: 091 magnetic, 090 true271 magnetic, 270 true
Markings: basic, in good conditionbasic, in good condition
Runway end identifier lights: yes
Touchdown point: yes, no lightsyes, no lights

Airport Ownership and Management from official FAA records

Ownership: Publicly-owned
Owner: VANDALIA PARK DISTRICT
900 NORTH LOCUST
VANDALIA, IL 62471
Phone 618-283-3176
Manager: CHAD FELDPOUCH
1754 N. 400 ST
VANDALIA, IL 62471
Phone 618-267-8035

Airport Operational Statistics

Aircraft based on the field: 21
Single engine airplanes: 19
Multi engine airplanes: 2
    
Aircraft operations: avg 27/day *
80% local general aviation
20% transient general aviation
<1% air taxi
* for 12-month period ending 31 May 2017

Additional Remarks

A58-27 RWY 27 HAS 8 FT SEASONAL CROPS 83 FT FROM RY END
FOR WX ADVY, 3 CLICKS CTAF. PHONE (618)283-9595.
RY 27 HAS 8FT SEASONAL CROPS 200 FT FROM RWY END, PENETRATING PART 77 SFC

Instrument Procedures

NOTE: All procedures below are presented as PDF files. If you need a reader for these files, you should download the free Adobe Reader.

NOT FOR NAVIGATION. Please procure official charts for flight.
FAA instrument procedures published for use between 4 January 2018 at 0901Z and 1 February 2018 at 0900Z.

 
IAPs - Instrument Approach Procedures
RNAV (GPS) RWY 18   download (165KB)
RNAV (GPS) RWY 36   download (181KB)
VOR RWY 18   download (179KB)
NOTE: Special Take-Off Minimums/Departure Procedures apply   download (201KB)

Other nearby airports with instrument procedures:

KGRE - Greenville Airport (14 nm SW)
KSLO - Salem-Leckrone Airport (23 nm SE)
3LF - Litchfield Municipal Airport (26 nm NW)
KENL - Centralia Municipal Airport (29 nm S)
2H0 - Shelby County Airport (29 nm NE)
 
Loc | Ops | Rwys | IFR | FBO | Links
Com | Nav | Svcs | Stats | Notes


 
Area around KVLA (Vandalia Municipal Airport)
 
Road maps at: MapQuest Bing Google
 
Aerial photo
WARNING: Photo may not be current or correct
Aerial photo of KVLA (Vandalia Municipal Airport)
Do you have a better or more recent aerial photo of Vandalia Municipal Airport that you would like to share? If so, please send us your photo.

 
Sectional chart

 
Airport distance calculator
Flying to Vandalia Municipal Airport? Find the distance to fly.

From to KVLA

Sunrise and sunset
Times for 18-Jan-2018
 Local
(UTC-6)
 Zulu
(UTC)
Morning civil twilight06:4512:45
Sunrise07:1413:14
Sunset17:0123:01
Evening civil twilight17:3023:30

Current date and time
Zulu (UTC)  19-Jan-2018 04:37:28
Local (UTC-6)  18-Jan-2018 22:37:28
 
METAR
KSLO 
23nm SE 
190415Z AUTO 20010KT 10SM CLR M02/M07 A3019 RMK AO2 T10231071
K3LF 
26nm NW 
190415Z AUTO 17009KT 10SM CLR M03/M06 A3014 RMK AO2 T10351062
KENL 
29nm S 
190415Z AUTO 20010KT 10SM CLR M03/M06 A3020 RMK AO2 T10301062
K1H2 
30nm E 
190415Z AUTO 18008KT 10SM CLR M03/M08 A3020 RMK AO2 T10301084
KTAZ 
33nm N 
190415Z AUTO 19013KT 10SM CLR M03/M06 A3012 RMK AO2 T10271065
KFOA 
39nm SE 
190415Z AUTO 19012KT 10SM CLR M03/M08 A3021 RMK AO2 T10331079
KALN 
41nm W 
190415Z AUTO 17011KT 10SM CLR M01/M06 A3015 RMK AO2 T10111062
KBLV 
42nm SW 
190356Z AUTO 22009KT 10SM CLR M02/M08 A3017 RMK AO2 SLP225 T10211080 $
KMVN 
43nm S 
190356Z AUTO 20011KT 10SM CLR M04/M07 A3022 RMK AO2 SLP241 T10391072 FZRANO
TAF
KBLV 
42nm SW 
190000Z 1900/2006 18009KT 9999 FEW250 QNH3012INS BECMG 1905/1906 19009KT 9999 FEW200 WS020/28040KT QNH3007INS BECMG 1911/1912 18009KT 9999 FEW180 510203 QNH2994INS TX10/1920Z TNM04/1913Z
NOTAMs
Click for the latest NOTAMs
NOTAMs are issued by the DoD/FAA and will open in a separate window not controlled by AirNav.

 

 
 

FBO, Fuel Providers, and Aircraft Ground Support

  
 Business Name 
 
 Contact 
 
 Services / Description 
 
Fuel Prices
 
Comments
  
Vandalia Park District 618-267-8035
no information available

If you are affiliated with Vandalia Park District and would like to show here your services, contact info, web link, logo, and more, click here
100LL Jet A
SS $4.00 $3.00 
 Updated 18-Jan-2018
 
   4 read write
SS=Self service
Update Fuel Prices
 

Would you like to see your business listed on this page?

 If your business provides an interesting product or service to pilots, flight crews, aircraft, or users of the Vandalia Municipal Airport, you should consider listing it here.  To start the listing process, click on the button below
 
Add a business
 

Other Pages about Vandalia Municipal Airport

Update a link
 
Copyright © AirNav, LLC. All rights reserved. Privacy Policy  Contact